CheckWX is a tool to help pilots better visualize weather data.  It is not intended as a substitute for an official pre-flight weather briefing.

20:10:29 UTC

KLNN METAR
Willoughby Lost Nation Municipal Airport
Willoughby, Ohio, USA
Current

35 mins ago

KLNN 231935Z AUTO 28015G23KT 10SM SCT046 BKN060 15/09 A2982 RMK AO1 T01500089
Observed
Apr-23 @ 19:35 UTC
Wind
  • 280° at 15 KTS
  • Gusting to 23 KTS
Visibility
10 SM
Flight Rules
VFR
Cloud Levels
  • Scattered at 4,600' AGL
  • Broken at 6,000' AGL
Temperature
15°C / 59°F
Dewpoint
C / 48°F
Humidity
68%
Altimeter
29.82" Hg
Pressure
1009.82 hPa
Previous

55 mins ago

KLNN 231915Z AUTO 28018G24KT 10SM SCT060 SCT075 16/10 A2981 RMK AO1 T01620095
Observed
Apr-23 @ 19:15 UTC
Wind
  • 280° at 18 KTS
  • Gusting to 24 KTS
Visibility
10 SM
Flight Rules
VFR
Cloud Levels
  • Scattered at 6,000' AGL
  • Scattered at 7,500' AGL
Temperature
16°C / 61°F
Dewpoint
10°C / 50°F
Humidity
68%
Altimeter
29.81" Hg
Pressure
1009.52 hPa
Previous

1 hour ago

KLNN 231855Z AUTO 28017G24KT 10SM SCT045 SCT050 SCT075 17/10 A2982 RMK AO1 T01710100
Observed
Apr-23 @ 18:55 UTC
Wind
  • 280° at 17 KTS
  • Gusting to 24 KTS
Visibility
10 SM
Flight Rules
VFR
Cloud Levels
  • Scattered at 4,500' AGL
  • Scattered at 5,000' AGL
  • Scattered at 7,500' AGL
Temperature
17°C / 63°F
Dewpoint
10°C / 50°F
Humidity
64%
Altimeter
29.82" Hg
Pressure
1009.82 hPa